Time;durP1;ratioP1;P1;durP2;ratioP2;P2;SDS_P1;SDS_P2;PMS_P1;PMS_P2;Temp;Humidity;BMP_temperature;BMP_pressure;BME280_temperature;BME280_humidity;BME280_pressure;Samples;Min_cycle;Max_cycle;Signal;HPM_P1;HPM_P2
2021/08/13 00:01:24;;;;;;;;;;;;;;;30.43;30.67;100780.44;4318820;33;33431;-87
2021/08/13 00:04:13;;;;;;;;;;;;;;;30.33;30.66;100777.00;4318781;33;33110;-87
2021/08/13 00:07:04;;;;;;;;;;;;;;;29.77;31.74;100776.97;4317729;33;33782;-88
2021/08/13 00:09:51;;;;;;;;;;;;;;;29.79;31.67;100791.06;4318669;33;33209;-88
2021/08/13 00:12:35;;;;;;;;;;;;;;;30.16;30.97;100778.66;4318371;33;33608;-87
2021/08/13 00:15:36;;;;;;;;;;;;;;;30.03;31.10;100783.53;4314071;33;34511;-88
2021/08/13 00:18:18;;;;;;;;;;;;;;;29.86;31.34;100791.38;4318085;33;33313;-87
2021/08/13 00:21:12;;;;;;;;;;;;;;;30.05;31.17;100790.44;4316486;33;33562;-88
2021/08/13 00:24:07;;;;;;;;;;;;;;;30.15;30.95;100782.31;4317542;33;33237;-88
2021/08/13 00:27:05;;;;;;;;;;;;;;;29.92;31.36;100782.72;4316735;33;34634;-88
2021/08/13 00:29:50;;;;;;;;;;;;;;;29.90;31.40;100786.56;4317264;33;33917;-88
2021/08/13 00:32:36;;;;;;;;;;;;;;;29.94;31.24;100778.06;4318168;33;33620;-87
2021/08/13 00:35:35;;;;;;;;;;;;;;;29.81;31.37;100774.84;4329747;33;34235;-87
2021/08/13 00:38:37;;;;;;;;;;;;;;;30.20;30.83;100779.19;4316257;33;33584;-88
2021/08/13 00:41:42;;;;;;;;;;;;;;;29.83;31.67;100776.34;4315649;33;33277;-87
2021/08/13 00:44:31;;;;;;;;;;;;;;;29.90;31.40;100782.03;4316754;33;32875;-87
2021/08/13 00:47:32;;;;;;;;;;;;;;;29.56;31.79;100773.66;4314184;33;33197;-87
2021/08/13 00:50:17;;;;;;;;;;;;;;;29.33;32.30;100773.97;4317633;33;33613;-87
2021/08/13 00:53:11;;;;;;;;;;;;;;;29.19;32.60;100763.69;4316833;33;34408;-88
2021/08/13 00:56:24;;;;;;;;;;;;;;;29.32;32.06;100769.63;4321798;33;33610;-87
2021/08/13 00:59:12;;;;;;;;;;;;;;;29.09;32.61;100758.31;4317610;33;33169;-87
2021/08/13 01:01:56;;;;;;;;;;;;;;;29.51;31.78;100760.66;4317304;33;34882;-87
2021/08/13 01:04:43;;;;;;;;;;;;;;;29.18;32.48;100767.34;4317773;33;33456;-88
2021/08/13 01:07:23;;;;;;;;;;;;;;;29.09;32.32;100766.37;4317794;33;32345;-88
2021/08/13 01:10:11;;;;;;;;;;;;;;;29.22;32.13;100766.91;4315692;33;34514;-88
2021/08/13 01:12:59;;;;;;;;;;;;;;;29.41;31.77;100766.06;4317636;33;35604;-88
2021/08/13 01:16:02;;;;;;;;;;;;;;;29.78;31.10;100767.91;4327996;33;34523;-87
2021/08/13 01:19:04;;;;;;;;;;;;;;;29.55;31.40;100759.37;4317861;33;33085;-87
2021/08/13 01:21:53;;;;;;;;;;;;;;;29.24;31.97;100762.25;4316727;33;34544;-87
2021/08/13 01:24:35;;;;;;;;;;;;;;;29.05;32.25;100760.47;4317747;33;34981;-87
2021/08/13 01:27:31;;;;;;;;;;;;;;;29.43;31.62;100763.22;4316173;33;33669;-87
2021/08/13 01:30:18;;;;;;;;;;;;;;;28.79;32.41;100765.56;4316829;33;32534;-86
2021/08/13 01:33:13;;;;;;;;;;;;;;;29.43;31.10;100773.97;4315680;33;33252;-87
2021/08/13 01:36:03;;;;;;;;;;;;;;;29.41;31.13;100771.44;4316796;33;34031;-87
2021/08/13 01:38:52;;;;;;;;;;;;;;;29.15;31.75;100765.81;4315976;33;33568;-88
2021/08/13 01:41:51;;;;;;;;;;;;;;;;;;;;;
2021/08/13 01:44:48;;;;;;;;;;;;;;;29.44;31.08;100764.94;4327434;32;34022;-88
2021/08/13 01:47:32;;;;;;;;;;;;;;;28.81;32.45;100771.63;4316057;33;35188;-88
2021/08/13 01:50:24;;;;;;;;;;;;;;;29.01;32.01;100763.56;4314586;33;33567;-88
2021/08/13 01:53:18;;;;;;;;;;;;;;;29.00;32.05;100757.38;4314351;33;33478;-88
2021/08/13 01:56:05;;;;;;;;;;;;;;;28.69;32.54;100762.03;4312155;33;34356;-87
2021/08/13 01:58:52;;;;;;;;;;;;;;;28.50;33.01;100767.19;4311606;33;33488;-88
2021/08/13 02:01:46;;;;;;;;;;;;;;;28.18;33.61;100766.59;4312302;33;33459;-88
2021/08/13 02:04:52;;;;;;;;;;;;;;;28.05;33.90;100764.97;4311113;33;32434;-88
2021/08/13 02:07:40;;;;;;;;;;;;;;;28.41;33.33;100764.50;4314229;33;33658;-88
2021/08/13 02:10:31;;;;;;;;;;;;;;;28.65;32.89;100762.31;4315085;33;33783;-87
2021/08/13 02:13:16;;;;;;;;;;;;;;;28.12;34.08;100768.81;4315933;33;33136;-88
2021/08/13 02:16:04;;;;;;;;;;;;;;;28.66;33.14;100763.97;4315247;33;32248;-89
2021/08/13 02:18:54;;;;;;;;;;;;;;;;;;;;;
2021/08/13 02:21:47;;;;;;;;;;;;;;;28.77;32.76;100772.87;4325408;32;34322;-88
2021/08/13 02:24:28;;;;;;;;;;;;;;;28.86;32.49;100772.03;4314835;33;34561;-88
2021/08/13 02:27:12;;;;;;;;;;;;;;;28.68;32.82;100776.41;4314453;33;32652;-88
2021/08/13 02:29:56;;;;;;;;;;;;;;;28.08;34.04;100778.12;4327859;33;34509;-88
2021/08/13 02:32:37;;;;;;;;;;;;;;;28.33;33.27;100771.41;4315548;33;34553;-88
2021/08/13 02:35:18;;;;;;;;;;;;;;;28.53;32.74;100786.66;4314837;33;33902;-88
2021/08/13 02:38:10;;;;;;;;;;;;;;;28.17;33.27;100776.44;4299773;33;33889;-88
2021/08/13 02:40:52;;;;;;;;;;;;;;;28.71;32.33;100776.16;4315015;33;33619;-88
2021/08/13 02:43:48;;;;;;;;;;;;;;;28.79;32.02;100773.59;4313882;33;33645;-88
2021/08/13 02:46:38;;;;;;;;;;;;;;;28.40;32.83;100770.84;4315689;33;33577;-88
2021/08/13 02:49:21;;;;;;;;;;;;;;;28.54;32.70;100769.59;4313690;33;34325;-88
2021/08/13 02:52:09;;;;;;;;;;;;;;;28.34;32.79;100777.59;4314905;33;33409;-88
2021/08/13 02:54:57;;;;;;;;;;;;;;;28.50;32.61;100772.53;4315484;33;34643;-88
2021/08/13 03:00:49;;;;;;;;;;;;;;;28.45;32.85;100784.69;4314104;33;32446;-87
2021/08/13 03:03:37;;;;;;;;;;;;;;;28.62;32.16;100781.31;4329224;33;34628;-88
2021/08/13 03:06:30;;;;;;;;;;;;;;;28.95;31.64;100779.22;4315064;33;35917;-88
2021/08/13 03:09:29;;;;;;;;;;;;;;;;;;;;;
2021/08/13 03:12:27;;;;;;;;;;;;;;;28.99;31.60;100777.13;4326078;33;33967;-87
2021/08/13 03:15:20;;;;;;;;;;;;;;;28.71;32.12;100768.09;4315740;33;34562;-88
2021/08/13 03:18:11;;;;;;;;;;;;;;;28.19;33.03;100771.81;4315759;33;33791;-88
2021/08/13 03:20:59;;;;;;;;;;;;;;;28.41;32.73;100765.34;4315730;33;33297;-88
2021/08/13 03:23:45;;;;;;;;;;;;;;;28.48;32.46;100768.34;4314981;33;33834;-89
2021/08/13 03:26:29;;;;;;;;;;;;;;;28.62;32.11;100765.22;4305820;33;33510;-88
2021/08/13 03:29:19;;;;;;;;;;;;;;;28.29;32.70;100764.62;4315157;33;37138;-89
2021/08/13 03:32:04;;;;;;;;;;;;;;;27.76;34.04;100757.69;4316339;33;34319;-88
2021/08/13 03:35:03;;;;;;;;;;;;;;;28.18;33.23;100762.06;4314328;33;32590;-88
2021/08/13 03:37:53;;;;;;;;;;;;;;;28.04;33.59;100773.16;4315172;33;33454;-88
2021/08/13 03:40:57;;;;;;;;;;;;;;;28.23;33.22;100767.88;4313641;33;35753;-88
2021/08/13 03:43:49;;;;;;;;;;;;;;;28.40;32.86;100768.16;4314039;33;33494;-88
2021/08/13 03:46:41;;;;;;;;;;;;;;;27.97;33.60;100772.81;4314128;33;35183;-88
2021/08/13 03:49:35;;;;;;;;;;;;;;;27.94;33.69;100775.78;4314602;33;35870;-88
2021/08/13 03:52:21;;;;;;;;;;;;;;;27.93;33.81;100784.78;4314910;33;33370;-88
2021/08/13 03:55:11;;;;;;;;;;;;;;;28.49;32.70;100788.78;4313834;33;33589;-89
2021/08/13 03:58:05;;;;;;;;;;;;;;;28.36;33.13;100786.37;4315156;33;33601;-88
2021/08/13 04:00:54;;;;;;;;;;;;;;;28.46;32.99;100783.69;4308116;33;34280;-88
2021/08/13 04:04:05;;;;;;;;;;;;;;;28.46;33.06;100792.56;4315870;33;34178;-88
2021/08/13 04:06:52;;;;;;;;;;;;;;;28.43;33.08;100790.19;4325191;33;34759;-88
2021/08/13 04:09:45;;;;;;;;;;;;;;;27.67;34.36;100795.97;4312838;33;33137;-89
2021/08/13 04:12:31;;;;;;;;;;;;;;;28.61;32.54;100798.41;4313461;33;34367;-88
2021/08/13 04:15:38;;;;;;;;;;;;;;;28.08;33.27;100796.87;4312389;33;35372;-88
2021/08/13 04:18:22;;;;;;;;;;;;;;;27.93;33.38;100804.38;4313282;33;33524;-88
2021/08/13 04:21:06;;;;;;;;;;;;;;;28.28;32.67;100805.81;4313899;33;32623;-89
2021/08/13 04:24:01;;;;;;;;;;;;;;;28.53;32.23;100808.12;4313128;33;33369;-88
2021/08/13 04:26:58;;;;;;;;;;;;;;;28.21;32.67;100812.69;4317524;33;33590;-89
2021/08/13 04:29:45;;;;;;;;;;;;;;;27.88;33.22;100813.78;4328219;33;34130;-88
2021/08/13 04:32:51;;;;;;;;;;;;;;;;;;;;;
2021/08/13 04:36:10;;;;;;;;;;;;;;;28.56;31.88;100829.28;4321780;33;33835;-88
2021/08/13 04:39:05;;;;;;;;;;;;;;;29.05;30.93;100835.59;4313135;33;33882;-89
2021/08/13 04:41:50;;;;;;;;;;;;;;;29.13;30.59;100832.16;4313735;33;33520;-89
2021/08/13 04:45:04;;;;;;;;;;;;;;;28.90;30.81;100829.75;4314267;33;32283;-88
2021/08/13 04:48:08;;;;;;;;;;;;;;;28.49;31.22;100834.34;4320239;33;34361;-88
2021/08/13 04:51:05;;;;;;;;;;;;;;;28.73;30.81;100830.47;4309949;33;34523;-89
2021/08/13 04:54:49;;;;;;;;;;;;;;;28.82;30.82;100829.63;4292147;33;33307;-89
2021/08/13 04:58:09;;;;;;;;;;;;;;;29.11;30.49;100829.63;4324084;33;34269;-89
2021/08/13 05:01:08;;;;;;;;;;;;;;;29.09;30.66;100826.25;4313054;33;35965;-89
2021/08/13 05:04:00;;;;;;;;;;;;;;;28.89;31.10;100822.72;4310863;33;34867;-89
2021/08/13 05:06:47;;;;;;;;;;;;;;;28.99;31.21;100823.56;4320644;33;34222;-89
2021/08/13 05:09:35;;;;;;;;;;;;;;;29.10;31.34;100827.09;4319959;33;33999;-89
2021/08/13 05:12:19;;;;;;;;;;;;;;;28.83;31.47;100821.44;4319838;33;34944;-88
2021/08/13 05:14:54;;;;;;;;;;;;;;;28.99;31.16;100820.03;4320549;33;34258;-87
2021/08/13 05:17:22;;;;;;;;;;;;;;;28.60;31.86;100822.66;4319941;33;34457;-88
2021/08/13 05:20:05;;;;;;;;;;;;;;;28.71;31.41;100819.87;4319822;33;33007;-87
2021/08/13 05:22:35;;;;;;;;;;;;;;;28.39;31.98;100828.97;4320191;33;33258;-88
2021/08/13 05:25:08;;;;;;;;;;;;;;;28.64;31.66;100822.28;4299175;33;34240;-88
2021/08/13 05:27:46;;;;;;;;;;;;;;;28.53;31.16;100835.75;4318522;33;34421;-88
2021/08/13 05:30:15;;;;;;;;;;;;;;;28.48;31.09;100840.72;4318277;33;32735;-87
2021/08/13 05:32:49;;;;;;;;;;;;;;;28.27;31.39;100830.06;4318942;33;34194;-87
2021/08/13 05:35:21;;;;;;;;;;;;;;;28.11;31.62;100823.37;4318208;33;37207;-88
2021/08/13 05:37:58;;;;;;;;;;;;;;;29.09;30.22;100823.56;4318626;33;36036;-88
2021/08/13 05:40:33;;;;;;;;;;;;;;;28.88;30.69;100823.72;4328995;33;34230;-88
2021/08/13 05:43:04;;;;;;;;;;;;;;;29.25;30.01;100828.34;4317270;33;35217;-87
2021/08/13 05:45:35;;;;;;;;;;;;;;;29.49;29.47;100829.78;4330694;33;34763;-88
2021/08/13 05:48:06;;;;;;;;;;;;;;;29.18;29.90;100829.06;4330832;33;36768;-88
2021/08/13 05:50:37;;;;;;;;;;;;;;;29.39;29.34;100826.25;4318258;33;34157;-88
2021/08/13 05:53:10;;;;;;;;;;;;;;;28.59;30.03;100829.84;4330792;32;32622;-87
2021/08/13 05:55:40;;;;;;;;;;;;;;;28.55;30.36;100832.97;4316038;33;35865;-87
2021/08/13 05:58:12;;;;;;;;;;;;;;;28.67;30.20;100826.50;4323933;33;35107;-87
2021/08/13 06:00:41;;;;;;;;;;;;;;;28.98;29.71;100831.75;4300621;33;33907;-87
2021/08/13 06:03:10;;;;;;;;;;;;;;;29.28;29.61;100840.69;4312156;33;35007;-87
2021/08/13 06:05:38;;;;;;;;;;;;;;;29.41;29.25;100833.16;4301318;33;35456;-87
2021/08/13 06:08:06;;;;;;;;;;;;;;;29.54;28.83;100838.22;4301927;33;34542;-88
2021/08/13 06:10:35;;;;;;;;;;;;;;;29.83;28.41;100839.97;4316774;33;34055;-87
2021/08/13 06:13:03;;;;;;;;;;;;;;;29.63;29.01;100834.66;4305517;33;33598;-88
2021/08/13 06:15:33;;;;;;;;;;;;;;;28.75;30.32;100829.34;4316721;33;33851;-87
2021/08/13 06:18:03;;;;;;;;;;;;;;;29.12;29.24;100831.31;4305145;33;33048;-87
2021/08/13 06:20:31;;;;;;;;;;;;;;;29.10;29.55;100835.12;4304594;33;34257;-88
2021/08/13 06:22:59;;;;;;;;;;;;;;;29.39;28.94;100840.50;4304774;33;34501;-88
2021/08/13 06:25:29;;;;;;;;;;;;;;;30.34;27.68;100845.03;4319430;33;35265;-88
2021/08/13 06:27:57;;;;;;;;;;;;;;;30.30;27.65;100836.41;4305625;33;34499;-88
2021/08/13 06:30:25;;;;;;;;;;;;;;;30.83;26.66;100837.50;4305455;33;32693;-88
2021/08/13 06:32:56;;;;;;;;;;;;;;;30.43;27.07;100844.13;4304953;33;33677;-88
2021/08/13 06:35:24;;;;;;;;;;;;;;;30.23;27.54;100844.22;4316551;33;35330;-88
2021/08/13 06:37:57;;;;;;;;;;;;;;;30.13;27.66;100846.97;4305900;33;34688;-90
2021/08/13 06:40:25;;;;;;;;;;;;;;;30.56;27.04;100844.63;4305037;33;33567;-87
2021/08/13 06:42:56;;;;;;;;;;;;;;;30.27;27.59;100845.59;4317825;33;34958;-88
2021/08/13 06:45:28;;;;;;;;;;;;;;;30.43;27.47;100844.13;4316097;33;32760;-88
2021/08/13 06:47:58;;;;;;;;;;;;;;;30.79;27.09;100845.06;4330343;33;34391;-88
2021/08/13 06:50:26;;;;;;;;;;;;;;;29.79;28.95;100846.63;4327573;33;33554;-87
2021/08/13 06:53:00;;;;;;;;;;;;;;;30.50;28.02;100842.53;4316982;33;33625;-89
2021/08/13 06:59:00;;;;;;;;;;;;;;;30.89;26.68;100836.91;4316192;33;36657;-89
2021/08/13 07:01:41;;;;;;;;;;;;;;;31.54;26.09;100840.28;4309515;33;35628;-88
2021/08/13 07:04:15;;;;;;;;;;;;;;;31.01;26.72;100847.41;4318616;33;33537;-88
2021/08/13 07:07:01;;;;;;;;;;;;;;;30.77;26.85;100848.91;4310207;33;33917;-88
2021/08/13 07:09:32;;;;;;;;;;;;;;;31.16;26.29;100843.22;4320579;33;33626;-87
2021/08/13 07:12:06;;;;;;;;;;;;;;;31.45;25.69;100839.41;4309030;33;32527;-87
2021/08/13 07:14:40;;;;;;;;;;;;;;;31.31;26.30;100848.88;4308600;33;33383;-87
2021/08/13 07:17:13;;;;;;;;;;;;;;;31.39;26.33;100845.41;4309121;33;35018;-88
2021/08/13 07:19:42;;;;;;;;;;;;;;;30.55;27.53;100859.06;4321227;33;35184;-88
2021/08/13 07:22:19;;;;;;;;;;;;;;;31.37;25.94;100852.81;4318994;33;33022;-87
2021/08/13 07:24:49;;;;;;;;;;;;;;;32.24;24.67;100853.72;4307972;33;34386;-87
2021/08/13 07:27:17;;;;;;;;;;;;;;;31.83;25.27;100850.81;4332106;33;36812;-88
2021/08/13 07:29:48;;;;;;;;;;;;;;;31.41;25.96;100849.66;4307624;33;32958;-89
2021/08/13 07:32:16;;;;;;;;;;;;;;;31.61;25.37;100847.63;4306849;33;32794;-88
2021/08/13 07:34:55;;;;;;;;;;;;;;;31.45;26.15;100856.41;4309346;33;34583;-86
2021/08/13 07:37:27;;;;;;;;;;;;;;;31.80;25.61;100851.97;4307550;33;35379;-87
2021/08/13 07:40:03;;;;;;;;;;;;;;;31.77;25.79;100857.66;4307762;33;33597;-88
2021/08/13 07:42:38;;;;;;;;;;;;;;;31.83;25.61;100860.72;4307717;33;33613;-87
2021/08/13 07:45:15;;;;;;;;;;;;;;;32.30;24.68;100850.34;4308103;33;35033;-87
2021/08/13 07:47:53;;;;;;;;;;;;;;;32.72;24.22;100861.28;4306950;33;34913;-88
2021/08/13 07:50:26;;;;;;;;;;;;;;;32.31;24.74;100856.63;4307192;33;33447;-87
2021/08/13 07:53:03;;;;;;;;;;;;;;;31.43;26.04;100860.25;4306862;33;33266;-87
2021/08/13 07:55:35;;;;;;;;;;;;;;;32.07;25.21;100855.47;4306356;33;33941;-88
2021/08/13 07:58:12;;;;;;;;;;;;;;;32.51;24.51;100854.47;4277010;33;1023201;-87
2021/08/13 08:00:49;;;;;;;;;;;;;;;32.77;24.58;100848.16;4318437;33;35210;-88
2021/08/13 08:03:19;;;;;;;;;;;;;;;33.58;23.59;100856.44;4316335;33;32643;-87
2021/08/13 08:05:47;;;;;;;;;;;;;;;32.70;24.78;100857.91;4303993;33;33450;-87
2021/08/13 08:08:20;;;;;;;;;;;;;;;33.32;24.09;100851.25;4303455;33;33674;-87
2021/08/13 08:10:52;;;;;;;;;;;;;;;33.00;24.22;100853.75;4316082;33;34712;-88
2021/08/13 08:13:20;;;;;;;;;;;;;;;33.45;23.59;100857.84;4303904;33;32850;-87
2021/08/13 08:15:50;;;;;;;;;;;;;;;33.77;23.57;100857.91;4303350;33;34609;-87
2021/08/13 08:18:22;;;;;;;;;;;;;;;32.72;24.74;100861.28;4299582;33;35441;-87
2021/08/13 08:20:50;;;;;;;;;;;;;;;33.39;23.71;100869.31;4304055;33;33443;-87
2021/08/13 08:23:33;;;;;;;;;;;;;;;33.22;24.11;100871.13;4318197;33;33602;-87
2021/08/13 08:26:08;;;;;;;;;;;;;;;33.90;23.32;100860.94;4305937;33;34868;-88
2021/08/13 08:28:42;;;;;;;;;;;;;;;33.59;23.62;100860.84;4306608;33;33863;-87
2021/08/13 08:31:13;;;;;;;;;;;;;;;33.77;23.48;100861.47;4318706;33;34852;-87
2021/08/13 08:33:45;;;;;;;;;;;;;;;33.92;23.20;100858.09;4305999;33;32417;-87
2021/08/13 08:36:13;;;;;;;;;;;;;;;34.15;23.33;100858.16;4293436;33;34577;-87
2021/08/13 08:38:47;;;;;;;;;;;;;;;33.98;23.32;100862.78;4305764;33;34685;-89
2021/08/13 08:41:20;;;;;;;;;;;;;;;34.47;22.71;100859.06;4308134;33;34936;-88
2021/08/13 08:43:49;;;;;;;;;;;;;;;34.78;22.52;100860.91;4326418;33;34031;-88
2021/08/13 08:46:18;;;;;;;;;;;;;;;34.99;22.26;100868.38;4329840;33;33898;-85
2021/08/13 08:48:52;;;;;;;;;;;;;;;35.03;22.26;100866.16;4305432;33;33875;-89
2021/08/13 08:51:22;;;;;;;;;;;;;;;35.55;21.30;100851.84;4304345;33;34744;-88
2021/08/13 08:53:56;;;;;;;;;;;;;;;35.17;22.11;100865.38;4328503;33;32708;-89
2021/08/13 08:56:24;;;;;;;;;;;;;;;35.42;21.68;100857.91;4328191;33;34426;-87
2021/08/13 08:58:54;;;;;;;;;;;;;;;35.97;21.50;100857.69;4324902;33;37107;-86
2021/08/13 09:01:22;;;;;;;;;;;;;;;35.30;22.43;100867.44;4316123;33;32854;-87
2021/08/13 09:03:50;;;;;;;;;;;;;;;36.08;20.80;100862.62;4317058;33;34323;-84
2021/08/13 09:06:25;;;;;;;;;;;;;;;35.96;21.07;100860.59;4317539;33;34316;-87
2021/08/13 09:08:53;;;;;;;;;;;;;;;36.66;20.11;100856.47;4329530;33;33990;-87
2021/08/13 09:11:23;;;;;;;;;;;;;;;35.74;21.58;100858.59;4324262;33;33579;-87
2021/08/13 09:14:17;;;;;;;;;;;;;;;34.97;22.67;100865.03;4329970;33;32488;-87
2021/08/13 09:17:02;;;;;;;;;;;;;;;35.30;22.10;100856.63;4319202;33;34742;-87
2021/08/13 09:19:38;;;;;;;;;;;;;;;35.88;21.30;100851.50;4303751;33;36266;-86
2021/08/13 09:22:20;;;;;;;;;;;;;;;35.57;21.96;100851.69;4307175;33;33466;-88
2021/08/13 09:25:03;;;;;;;;;;;;;;;35.92;21.45;100852.81;4308594;33;32849;-89
2021/08/13 09:27:54;;;;;;;;;;;;;;;36.48;20.28;100862.31;4309936;33;34343;-89
2021/08/13 09:30:52;;;;;;;;;;;;;;;36.62;19.99;100855.16;4322249;33;35359;-89
2021/08/13 09:33:45;;;;;;;;;;;;;;;36.25;20.50;100849.69;4310278;33;34024;-89
2021/08/13 09:36:27;;;;;;;;;;;;;;;36.52;20.45;100860.06;4308714;33;35050;-88
2021/08/13 09:39:06;;;;;;;;;;;;;;;35.35;21.42;100854.22;4309106;33;33763;-89
2021/08/13 09:41:45;;;;;;;;;;;;;;;36.32;20.37;100848.94;4309054;33;35565;-88
2021/08/13 09:44:35;;;;;;;;;;;;;;;36.05;21.03;100854.03;4321161;33;34514;-88
2021/08/13 09:47:07;;;;;;;;;;;;;;;36.65;20.42;100853.94;4318082;33;34796;-88
2021/08/13 09:49:41;;;;;;;;;;;;;;;36.41;20.93;100862.22;4305065;33;35426;-87
2021/08/13 09:52:18;;;;;;;;;;;;;;;35.82;21.54;100846.81;4306168;33;35340;-88
2021/08/13 09:54:49;;;;;;;;;;;;;;;36.37;20.70;100852.78;4305293;33;36046;-87
2021/08/13 09:57:20;;;;;;;;;;;;;;;35.37;22.07;100851.34;4293544;33;33784;-88
2021/08/13 10:00:03;;;;;;;;;;;;;;;35.74;21.69;100841.47;4293503;33;36908;-88
2021/08/13 10:02:41;;;;;;;;;;;;;;;36.17;21.20;100838.13;4304976;33;34625;-87
2021/08/13 10:05:30;;;;;;;;;;;;;;;36.56;20.87;100845.06;4305269;33;34341;-88
2021/08/13 10:08:03;;;;;;;;;;;;;;;35.50;22.19;100846.16;4306352;33;32787;-88
2021/08/13 10:10:36;;;;;;;;;;;;;;;35.92;21.77;100846.56;4305626;33;33646;-88
2021/08/13 10:13:09;;;;;;;;;;;;;;;36.78;20.63;100840.50;4308034;33;34514;-87
2021/08/13 10:15:48;;;;;;;;;;;;;;;37.35;20.09;100844.19;4308413;33;34075;-87
2021/08/13 10:18:22;;;;;;;;;;;;;;;37.69;19.78;100850.66;4289606;33;32243;-88
2021/08/13 10:20:57;;;;;;;;;;;;;;;38.14;19.23;100842.12;4318058;33;33020;-88
2021/08/13 10:23:28;;;;;;;;;;;;;;;37.47;20.04;100844.47;4305904;33;34804;-86
2021/08/13 10:25:58;;;;;;;;;;;;;;;37.31;20.22;100847.47;4316363;33;35032;-86
2021/08/13 10:28:26;;;;;;;;;;;;;;;37.19;20.40;100844.44;4303829;33;33432;-87
2021/08/13 10:30:55;;;;;;;;;;;;;;;37.46;20.23;100831.94;4303950;33;36755;-88
2021/08/13 10:33:23;;;;;;;;;;;;;;;36.92;21.00;100842.34;4292267;33;34521;-87
2021/08/13 10:35:52;;;;;;;;;;;;;;;37.17;20.76;100841.09;4304098;33;36956;-86
2021/08/13 10:38:21;;;;;;;;;;;;;;;36.96;20.90;100836.50;4304697;33;33312;-87
2021/08/13 10:40:50;;;;;;;;;;;;;;;37.30;20.75;100835.78;4304871;33;34545;-87
2021/08/13 10:43:20;;;;;;;;;;;;;;;37.54;20.53;100825.50;4305897;33;35661;-86
2021/08/13 10:45:49;;;;;;;;;;;;;;;37.22;20.89;100825.03;4294107;33;34770;-88
2021/08/13 10:48:24;;;;;;;;;;;;;;;37.11;20.96;100826.41;4305081;33;34813;-88
2021/08/13 10:50:59;;;;;;;;;;;;;;;36.70;21.46;100824.34;4306073;33;33754;-89
2021/08/13 10:53:33;;;;;;;;;;;;;;;36.07;22.19;100827.56;4306421;33;34509;-87
2021/08/13 10:56:06;;;;;;;;;;;;;;;37.55;20.45;100813.56;4305802;33;33754;-88
2021/08/13 10:58:52;;;;;;;;;;;;;;;38.18;19.88;100824.38;4306248;33;32692;-88
2021/08/13 11:01:59;;;;;;;;;;;;;;;39.15;18.62;100828.78;4305742;33;33306;-88
2021/08/13 11:05:06;;;;;;;;;;;;;;;38.89;19.03;100814.94;4319323;33;35126;-88
2021/08/13 11:08:06;;;;;;;;;;;;;;;38.86;18.87;100807.19;4304866;33;36165;-88
2021/08/13 11:11:20;;;;;;;;;;;;;;;38.10;19.80;100808.22;4306422;33;32669;-88
2021/08/13 11:14:21;;;;;;;;;;;;;;;38.15;20.11;100800.28;4306851;33;33632;-88
2021/08/13 11:18:06;;;;;;;;;;;;;;;37.29;20.89;100795.19;4308053;33;33974;-88
2021/08/13 11:20:59;;;;;;;;;;;;;;;38.33;19.72;100790.75;4303601;33;33504;-88
2021/08/13 11:24:00;;;;;;;;;;;;;;;36.58;21.95;100795.00;4283788;33;32496;-89
2021/08/13 11:26:53;;;;;;;;;;;;;;;36.56;21.93;100783.47;4292347;33;33662;-88
2021/08/13 11:34:03;;;;;;;;;;;;;;;37.54;21.03;100774.69;4267692;33;34679;-88
2021/08/13 11:38:35;;;;;;;;;;;;;;;38.22;20.64;100778.56;4243922;33;33547;-90
2021/08/13 11:41:24;;;;;;;;;;;;;;;38.58;19.84;100775.50;4220325;33;35176;-88
2021/08/13 11:44:17;;;;;;;;;;;;;;;38.28;20.17;100777.78;4222658;33;34229;-89
2021/08/13 11:47:06;;;;;;;;;;;;;;;39.02;19.54;100777.84;4227124;33;35270;-88
2021/08/13 11:49:56;;;;;;;;;;;;;;;36.65;22.07;100773.34;4233654;33;33656;-89
2021/08/13 11:52:48;;;;;;;;;;;;;;;38.08;20.11;100766.78;4235352;33;33664;-89
2021/08/13 11:55:42;;;;;;;;;;;;;;;38.22;20.15;100771.22;4197788;34;34340;-89
2021/08/13 11:58:26;;;;;;;;;;;;;;;38.80;19.66;100777.22;4217493;33;33748;-89
2021/08/13 12:01:15;;;;;;;;;;;;;;;36.96;21.75;100774.06;4205882;34;33912;-87
2021/08/13 12:04:08;;;;;;;;;;;;;;;36.17;22.89;100767.62;4216491;33;35076;-89
2021/08/13 12:07:31;;;;;;;;;;;;;;;37.07;21.66;100766.22;4257593;33;34774;-89
2021/08/13 12:14:07;;;;;;;;;;;;;;;38.26;20.84;100752.63;4238946;33;32583;-89
2021/08/13 12:17:19;;;;;;;;;;;;;;;38.65;20.27;100756.44;4265511;33;34578;-88
2021/08/13 12:20:15;;;;;;;;;;;;;;;39.44;19.22;100758.50;4296871;33;34911;-88
2021/08/13 12:23:25;;;;;;;;;;;;;;;40.01;18.68;100748.66;4320387;33;37190;-89
2021/08/13 12:26:17;;;;;;;;;;;;;;;40.15;18.64;100749.44;4314754;33;35669;-88
2021/08/13 12:29:36;;;;;;;;;;;;;;;39.85;18.90;100754.59;4312444;33;34191;-88
2021/08/13 12:32:45;;;;;;;;;;;;;;;39.44;19.17;100753.91;4311796;33;33559;-89
2021/08/13 12:35:45;;;;;;;;;;;;;;;40.22;18.48;100735.75;4323221;33;33574;-89
2021/08/13 12:38:37;;;;;;;;;;;;;;;41.08;17.60;100722.50;4311656;33;34892;-89
2021/08/13 12:41:36;;;;;;;;;;;;;;;40.80;17.96;100734.69;4310535;33;33093;-89
2021/08/13 12:57:21;;;;;;;;;;;;;;;;;;;;;
2021/08/13 13:00:28;;;;;;;;;;;;;;;39.80;19.12;100711.63;4202346;34;33783;-90
2021/08/13 13:03:18;;;;;;;;;;;;;;;38.21;21.26;100717.84;4203689;33;36935;-89
2021/08/13 13:07:07;;;;;;;;;;;;;;;39.15;19.94;100711.63;4150645;34;33272;-90
2021/08/13 13:10:11;;;;;;;;;;;;;;;37.88;21.53;100705.03;4145228;34;34511;-89
2021/08/13 13:13:04;;;;;;;;;;;;;;;39.50;19.71;100697.69;4187581;34;34243;-89
2021/08/13 13:16:03;;;;;;;;;;;;;;;37.46;21.91;100704.19;4186552;34;33821;-88
2021/08/13 13:18:45;;;;;;;;;;;;;;;37.64;22.00;100698.19;4198251;34;33854;-87
2021/08/13 13:21:29;;;;;;;;;;;;;;;38.70;20.68;100693.22;4198356;34;34992;-88
2021/08/13 13:24:21;;;;;;;;;;;;;;;38.91;20.46;100687.53;4186663;34;33885;-88
2021/08/13 13:27:04;;;;;;;;;;;;;;;39.87;19.30;100684.31;4197932;34;34551;-89
2021/08/13 13:29:50;;;;;;;;;;;;;;;39.54;19.47;100683.41;4197678;34;34492;-89
2021/08/13 13:32:38;;;;;;;;;;;;;;;40.38;18.67;100675.19;4217557;33;34690;-88
2021/08/13 13:35:11;;;;;;;;;;;;;;;39.90;19.30;100670.22;4272072;33;35082;-88
2021/08/13 13:37:45;;;;;;;;;;;;;;;40.46;18.73;100670.50;4270701;33;34593;-88
2021/08/13 13:40:13;;;;;;;;;;;;;;;40.55;18.49;100675.47;4283726;33;33596;-88
2021/08/13 13:42:41;;;;;;;;;;;;;;;39.13;20.07;100664.66;4281044;33;34715;-88
2021/08/13 13:45:13;;;;;;;;;;;;;;;39.16;20.18;100661.50;4321578;33;34913;-88
2021/08/13 13:47:43;;;;;;;;;;;;;;;39.99;19.42;100658.00;4302751;33;34241;-88
2021/08/13 13:50:12;;;;;;;;;;;;;;;40.04;19.16;100660.09;4302201;33;36207;-88
2021/08/13 13:52:40;;;;;;;;;;;;;;;40.21;19.01;100653.06;4319351;33;36618;-88
2021/08/13 13:55:08;;;;;;;;;;;;;;;40.24;19.10;100655.34;4331807;32;33908;-88
2021/08/13 13:57:36;;;;;;;;;;;;;;;39.87;19.71;100654.31;4307099;33;35119;-87
2021/08/13 14:00:10;;;;;;;;;;;;;;;39.52;19.49;100636.44;4307605;33;34478;-88
2021/08/13 14:02:43;;;;;;;;;;;;;;;39.79;19.36;100633.59;4320191;33;34760;-89
2021/08/13 14:05:12;;;;;;;;;;;;;;;40.08;19.38;100636.78;4308393;33;33928;-88
2021/08/13 14:07:42;;;;;;;;;;;;;;;39.94;19.71;100629.72;4307367;33;35475;-88
2021/08/13 14:10:11;;;;;;;;;;;;;;;39.49;20.27;100625.12;4320188;33;33822;-88
2021/08/13 14:12:39;;;;;;;;;;;;;;;39.48;20.10;100621.59;4319798;33;34473;-87
2021/08/13 14:15:08;;;;;;;;;;;;;;;40.03;19.23;100620.22;4319937;33;33796;-87
2021/08/13 14:17:36;;;;;;;;;;;;;;;39.50;20.01;100616.72;4307323;33;36172;-88
2021/08/13 14:20:06;;;;;;;;;;;;;;;39.45;20.19;100613.84;4306854;33;34057;-87
2021/08/13 14:22:35;;;;;;;;;;;;;;;39.05;20.25;100620.28;4319765;33;34140;-87
2021/08/13 14:25:10;;;;;;;;;;;;;;;39.86;19.03;100606.28;4307080;33;34007;-88
2021/08/13 14:27:38;;;;;;;;;;;;;;;40.41;18.85;100611.13;4307459;33;35468;-88
2021/08/13 14:30:07;;;;;;;;;;;;;;;40.45;19.15;100609.59;4332080;33;34290;-87
2021/08/13 14:32:35;;;;;;;;;;;;;;;40.80;18.24;100609.06;4331149;33;35109;-87
2021/08/13 14:35:05;;;;;;;;;;;;;;;40.27;18.91;100604.94;4319866;33;34149;-87